sensor_id;sensor_type;location;lat;lon;timestamp;P1;durP1;ratioP1;P2;durP2;ratioP2
40781;SDS011;26493;51.938;7.626;2023-01-13T00:01:17;39.10;;;36.50;;
40781;SDS011;26493;51.938;7.626;2023-01-13T00:03:44;38.50;;;35.90;;
40781;SDS011;26493;51.938;7.626;2023-01-13T00:06:14;38.20;;;35.60;;
40781;SDS011;26493;51.938;7.626;2023-01-13T00:08:41;39.55;;;36.95;;
40781;SDS011;26493;51.938;7.626;2023-01-13T00:11:08;38.40;;;35.80;;
40781;SDS011;26493;51.938;7.626;2023-01-13T00:13:35;37.75;;;35.25;;
40781;SDS011;26493;51.938;7.626;2023-01-13T00:16:03;35.57;;;33.17;;
40781;SDS011;26493;51.938;7.626;2023-01-13T00:18:29;34.75;;;32.35;;
40781;SDS011;26493;51.938;7.626;2023-01-13T00:20:59;33.60;;;31.20;;
40781;SDS011;26493;51.938;7.626;2023-01-13T00:23:26;33.80;;;31.50;;
40781;SDS011;26493;51.938;7.626;2023-01-13T00:25:54;33.72;;;31.33;;
40781;SDS011;26493;51.938;7.626;2023-01-13T00:28:20;32.03;;;29.73;;
40781;SDS011;26493;51.938;7.626;2023-01-13T00:30:46;30.63;;;28.42;;
40781;SDS011;26493;51.938;7.626;2023-01-13T00:33:12;30.70;;;28.50;;
40781;SDS011;26493;51.938;7.626;2023-01-13T00:35:38;28.95;;;26.75;;
40781;SDS011;26493;51.938;7.626;2023-01-13T00:38:04;27.70;;;25.60;;
40781;SDS011;26493;51.938;7.626;2023-01-13T00:40:30;27.45;;;25.35;;
40781;SDS011;26493;51.938;7.626;2023-01-13T00:42:56;25.85;;;23.75;;
40781;SDS011;26493;51.938;7.626;2023-01-13T00:45:40;24.02;;;22.02;;
40781;SDS011;26493;51.938;7.626;2023-01-13T00:48:07;24.25;;;22.25;;
40781;SDS011;26493;51.938;7.626;2023-01-13T00:50:32;21.73;;;19.83;;
40781;SDS011;26493;51.938;7.626;2023-01-13T00:52:59;19.10;;;17.30;;
40781;SDS011;26493;51.938;7.626;2023-01-13T00:55:25;19.23;;;17.42;;
40781;SDS011;26493;51.938;7.626;2023-01-13T00:57:51;18.45;;;16.65;;
40781;SDS011;26493;51.938;7.626;2023-01-13T01:00:17;18.63;;;16.83;;
40781;SDS011;26493;51.938;7.626;2023-01-13T01:02:43;18.20;;;16.40;;
40781;SDS011;26493;51.938;7.626;2023-01-13T01:05:09;17.85;;;16.15;;
40781;SDS011;26493;51.938;7.626;2023-01-13T01:07:35;17.92;;;16.17;;
40781;SDS011;26493;51.938;7.626;2023-01-13T01:10:01;21.15;;;16.92;;
40781;SDS011;26493;51.938;7.626;2023-01-13T01:12:27;15.90;;;14.20;;
40781;SDS011;26493;51.938;7.626;2023-01-13T01:14:53;15.30;;;13.60;;
40781;SDS011;26493;51.938;7.626;2023-01-13T01:17:19;15.20;;;13.20;;
40781;SDS011;26493;51.938;7.626;2023-01-13T01:19:45;14.80;;;12.20;;
40781;SDS011;26493;51.938;7.626;2023-01-13T01:22:11;17.30;;;13.75;;
40781;SDS011;26493;51.938;7.626;2023-01-13T01:24:37;14.88;;;12.35;;
40781;SDS011;26493;51.938;7.626;2023-01-13T01:27:04;14.90;;;12.40;;
40781;SDS011;26493;51.938;7.626;2023-01-13T01:29:30;14.88;;;12.55;;
40781;SDS011;26493;51.938;7.626;2023-01-13T01:31:56;14.70;;;11.80;;
40781;SDS011;26493;51.938;7.626;2023-01-13T01:34:23;14.68;;;11.88;;
40781;SDS011;26493;51.938;7.626;2023-01-13T01:36:49;14.50;;;11.50;;
40781;SDS011;26493;51.938;7.626;2023-01-13T01:39:15;14.60;;;11.65;;
40781;SDS011;26493;51.938;7.626;2023-01-13T01:41:41;14.80;;;12.00;;
40781;SDS011;26493;51.938;7.626;2023-01-13T01:47:09;15.00;;;12.63;;
40781;SDS011;26493;51.938;7.626;2023-01-13T01:49:36;14.50;;;11.20;;
40781;SDS011;26493;51.938;7.626;2023-01-13T01:54:51;14.63;;;11.73;;
40781;SDS011;26493;51.938;7.626;2023-01-13T01:57:21;14.60;;;11.55;;
40781;SDS011;26493;51.938;7.626;2023-01-13T01:59:48;22.48;;;13.32;;
40781;SDS011;26493;51.938;7.626;2023-01-13T02:02:14;14.30;;;10.73;;
40781;SDS011;26493;51.938;7.626;2023-01-13T02:04:42;14.40;;;11.00;;
40781;SDS011;26493;51.938;7.626;2023-01-13T02:07:15;14.30;;;10.88;;
40781;SDS011;26493;51.938;7.626;2023-01-13T02:09:42;14.50;;;11.30;;
40781;SDS011;26493;51.938;7.626;2023-01-13T02:12:08;43.38;;;12.00;;
40781;SDS011;26493;51.938;7.626;2023-01-13T02:14:53;14.35;;;10.90;;
40781;SDS011;26493;51.938;7.626;2023-01-13T02:37:58;14.00;;;10.00;;
40781;SDS011;26493;51.938;7.626;2023-01-13T02:46:15;14.02;;;10.13;;
40781;SDS011;26493;51.938;7.626;2023-01-13T02:48:43;14.07;;;10.10;;
40781;SDS011;26493;51.938;7.626;2023-01-13T02:51:14;13.93;;;9.63;;
40781;SDS011;26493;51.938;7.626;2023-01-13T02:56:38;13.75;;;9.15;;
40781;SDS011;26493;51.938;7.626;2023-01-13T02:59:05;13.85;;;9.43;;
40781;SDS011;26493;51.938;7.626;2023-01-13T03:01:31;14.00;;;9.95;;
40781;SDS011;26493;51.938;7.626;2023-01-13T03:03:57;13.65;;;9.05;;
40781;SDS011;26493;51.938;7.626;2023-01-13T03:09:14;13.85;;;9.43;;
40781;SDS011;26493;51.938;7.626;2023-01-13T03:11:49;16.85;;;11.80;;
40781;SDS011;26493;51.938;7.626;2023-01-13T03:17:31;13.90;;;9.80;;
40781;SDS011;26493;51.938;7.626;2023-01-13T03:24:36;13.95;;;9.70;;
40781;SDS011;26493;51.938;7.626;2023-01-13T03:27:09;13.90;;;9.73;;
40781;SDS011;26493;51.938;7.626;2023-01-13T03:29:41;14.20;;;10.15;;
40781;SDS011;26493;51.938;7.626;2023-01-13T03:32:14;13.95;;;9.70;;
40781;SDS011;26493;51.938;7.626;2023-01-13T03:37:36;13.95;;;9.70;;
40781;SDS011;26493;51.938;7.626;2023-01-13T03:40:06;13.77;;;9.18;;
40781;SDS011;26493;51.938;7.626;2023-01-13T03:42:33;13.70;;;9.02;;
40781;SDS011;26493;51.938;7.626;2023-01-13T03:50:02;13.95;;;9.20;;
40781;SDS011;26493;51.938;7.626;2023-01-13T03:52:48;13.68;;;9.00;;
40781;SDS011;26493;51.938;7.626;2023-01-13T03:55:17;13.68;;;9.05;;
40781;SDS011;26493;51.938;7.626;2023-01-13T03:57:57;13.60;;;8.70;;
40781;SDS011;26493;51.938;7.626;2023-01-13T04:00:27;13.63;;;8.80;;
40781;SDS011;26493;51.938;7.626;2023-01-13T04:02:57;13.88;;;9.50;;
40781;SDS011;26493;51.938;7.626;2023-01-13T04:05:28;13.70;;;9.00;;
40781;SDS011;26493;51.938;7.626;2023-01-13T04:10:39;13.80;;;9.27;;
40781;SDS011;26493;51.938;7.626;2023-01-13T04:13:09;14.32;;;10.43;;
40781;SDS011;26493;51.938;7.626;2023-01-13T04:15:38;13.60;;;8.80;;
40781;SDS011;26493;51.938;7.626;2023-01-13T04:18:08;13.80;;;9.20;;
40781;SDS011;26493;51.938;7.626;2023-01-13T04:20:35;13.80;;;8.80;;
40781;SDS011;26493;51.938;7.626;2023-01-13T04:23:01;13.70;;;8.70;;
40781;SDS011;26493;51.938;7.626;2023-01-13T04:25:27;13.60;;;8.73;;
40781;SDS011;26493;51.938;7.626;2023-01-13T04:27:53;13.68;;;9.00;;
40781;SDS011;26493;51.938;7.626;2023-01-13T04:30:19;13.65;;;8.77;;
40781;SDS011;26493;51.938;7.626;2023-01-13T04:32:45;13.57;;;8.77;;
40781;SDS011;26493;51.938;7.626;2023-01-13T04:35:11;13.55;;;8.52;;
40781;SDS011;26493;51.938;7.626;2023-01-13T04:37:37;13.50;;;8.60;;
40781;SDS011;26493;51.938;7.626;2023-01-13T04:40:03;13.50;;;8.43;;
40781;SDS011;26493;51.938;7.626;2023-01-13T04:42:29;13.55;;;8.57;;
40781;SDS011;26493;51.938;7.626;2023-01-13T04:44:55;13.57;;;8.68;;
40781;SDS011;26493;51.938;7.626;2023-01-13T04:47:21;13.70;;;9.02;;
40781;SDS011;26493;51.938;7.626;2023-01-13T04:49:47;13.52;;;8.48;;
40781;SDS011;26493;51.938;7.626;2023-01-13T04:52:13;13.57;;;8.68;;
40781;SDS011;26493;51.938;7.626;2023-01-13T04:54:39;13.90;;;9.43;;
40781;SDS011;26493;51.938;7.626;2023-01-13T04:57:05;13.50;;;8.30;;
40781;SDS011;26493;51.938;7.626;2023-01-13T04:59:31;13.40;;;8.15;;
40781;SDS011;26493;51.938;7.626;2023-01-13T05:01:57;13.80;;;8.80;;
40781;SDS011;26493;51.938;7.626;2023-01-13T05:04:23;13.25;;;8.18;;
40781;SDS011;26493;51.938;7.626;2023-01-13T05:06:49;13.50;;;8.50;;
40781;SDS011;26493;51.938;7.626;2023-01-13T05:09:15;14.20;;;9.35;;
40781;SDS011;26493;51.938;7.626;2023-01-13T05:11:41;13.32;;;8.20;;
40781;SDS011;26493;51.938;7.626;2023-01-13T05:14:26;13.23;;;7.85;;
40781;SDS011;26493;51.938;7.626;2023-01-13T05:17:12;13.90;;;8.98;;
40781;SDS011;26493;51.938;7.626;2023-01-13T05:19:39;13.30;;;8.10;;
40781;SDS011;26493;51.938;7.626;2023-01-13T05:22:05;13.07;;;7.80;;
40781;SDS011;26493;51.938;7.626;2023-01-13T05:24:50;13.05;;;7.65;;
40781;SDS011;26493;51.938;7.626;2023-01-13T05:27:34;13.27;;;7.85;;
40781;SDS011;26493;51.938;7.626;2023-01-13T05:30:00;13.40;;;8.18;;
40781;SDS011;26493;51.938;7.626;2023-01-13T05:32:27;13.38;;;8.18;;
40781;SDS011;26493;51.938;7.626;2023-01-13T05:34:53;13.40;;;8.10;;
40781;SDS011;26493;51.938;7.626;2023-01-13T05:37:20;13.30;;;7.95;;
40781;SDS011;26493;51.938;7.626;2023-01-13T05:39:46;13.25;;;7.85;;
40781;SDS011;26493;51.938;7.626;2023-01-13T05:42:30;13.15;;;7.88;;
40781;SDS011;26493;51.938;7.626;2023-01-13T05:45:15;13.73;;;8.45;;
40781;SDS011;26493;51.938;7.626;2023-01-13T05:47:41;13.30;;;8.02;;
40781;SDS011;26493;51.938;7.626;2023-01-13T05:50:07;13.35;;;8.05;;
40781;SDS011;26493;51.938;7.626;2023-01-13T05:52:34;13.45;;;8.13;;
40781;SDS011;26493;51.938;7.626;2023-01-13T05:55:00;13.40;;;8.02;;
40781;SDS011;26493;51.938;7.626;2023-01-13T05:57:26;13.45;;;8.15;;
40781;SDS011;26493;51.938;7.626;2023-01-13T05:59:52;13.45;;;8.32;;
40781;SDS011;26493;51.938;7.626;2023-01-13T06:02:18;13.40;;;8.30;;
40781;SDS011;26493;51.938;7.626;2023-01-13T06:04:44;13.60;;;8.70;;
40781;SDS011;26493;51.938;7.626;2023-01-13T06:07:10;13.52;;;8.50;;
40781;SDS011;26493;51.938;7.626;2023-01-13T06:09:36;13.55;;;8.50;;
40781;SDS011;26493;51.938;7.626;2023-01-13T06:12:02;13.55;;;8.50;;
40781;SDS011;26493;51.938;7.626;2023-01-13T06:14:28;13.50;;;8.52;;
40781;SDS011;26493;51.938;7.626;2023-01-13T06:17:05;13.57;;;8.57;;
40781;SDS011;26493;51.938;7.626;2023-01-13T06:19:31;13.55;;;8.63;;
40781;SDS011;26493;51.938;7.626;2023-01-13T06:21:57;13.35;;;8.23;;
40781;SDS011;26493;51.938;7.626;2023-01-13T06:24:23;13.40;;;8.48;;
40781;SDS011;26493;51.938;7.626;2023-01-13T06:26:49;13.48;;;8.40;;
40781;SDS011;26493;51.938;7.626;2023-01-13T06:29:15;13.57;;;8.82;;
40781;SDS011;26493;51.938;7.626;2023-01-13T06:31:41;13.57;;;8.73;;
40781;SDS011;26493;51.938;7.626;2023-01-13T06:34:08;13.70;;;9.00;;
40781;SDS011;26493;51.938;7.626;2023-01-13T06:36:39;13.63;;;8.73;;
40781;SDS011;26493;51.938;7.626;2023-01-13T06:41:32;13.73;;;9.00;;
40781;SDS011;26493;51.938;7.626;2023-01-13T06:44:17;19.83;;;11.13;;
40781;SDS011;26493;51.938;7.626;2023-01-13T06:46:44;20.88;;;10.65;;
40781;SDS011;26493;51.938;7.626;2023-01-13T06:49:10;20.55;;;10.40;;
40781;SDS011;26493;51.938;7.626;2023-01-13T06:51:36;18.33;;;10.52;;
40781;SDS011;26493;51.938;7.626;2023-01-13T06:54:02;20.08;;;10.60;;
40781;SDS011;26493;51.938;7.626;2023-01-13T06:56:28;22.33;;;11.52;;
40781;SDS011;26493;51.938;7.626;2023-01-13T06:58:54;20.00;;;11.52;;
40781;SDS011;26493;51.938;7.626;2023-01-13T07:01:20;18.30;;;9.95;;
40781;SDS011;26493;51.938;7.626;2023-01-13T07:03:46;20.17;;;9.48;;
40781;SDS011;26493;51.938;7.626;2023-01-13T07:06:12;22.17;;;10.30;;
40781;SDS011;26493;51.938;7.626;2023-01-13T07:08:38;24.83;;;9.82;;
40781;SDS011;26493;51.938;7.626;2023-01-13T07:11:04;19.05;;;10.93;;
40781;SDS011;26493;51.938;7.626;2023-01-13T07:13:31;20.27;;;10.10;;
40781;SDS011;26493;51.938;7.626;2023-01-13T07:16:17;21.40;;;10.75;;
40781;SDS011;26493;51.938;7.626;2023-01-13T07:18:43;23.65;;;10.45;;
40781;SDS011;26493;51.938;7.626;2023-01-13T07:21:10;18.35;;;10.65;;
40781;SDS011;26493;51.938;7.626;2023-01-13T07:23:40;20.85;;;10.65;;
40781;SDS011;26493;51.938;7.626;2023-01-13T07:26:07;20.50;;;10.98;;
40781;SDS011;26493;51.938;7.626;2023-01-13T07:28:33;21.98;;;11.65;;
40781;SDS011;26493;51.938;7.626;2023-01-13T07:30:59;18.58;;;10.13;;
40781;SDS011;26493;51.938;7.626;2023-01-13T07:33:26;21.23;;;11.15;;
40781;SDS011;26493;51.938;7.626;2023-01-13T07:35:56;22.67;;;10.57;;
40781;SDS011;26493;51.938;7.626;2023-01-13T07:38:22;17.75;;;10.25;;
40781;SDS011;26493;51.938;7.626;2023-01-13T07:40:48;21.63;;;10.52;;
40781;SDS011;26493;51.938;7.626;2023-01-13T07:43:14;24.17;;;9.73;;
40781;SDS011;26493;51.938;7.626;2023-01-13T07:46:12;21.95;;;11.32;;
40781;SDS011;26493;51.938;7.626;2023-01-13T07:48:38;20.52;;;10.40;;
40781;SDS011;26493;51.938;7.626;2023-01-13T07:51:05;19.13;;;9.65;;
40781;SDS011;26493;51.938;7.626;2023-01-13T07:53:32;22.38;;;9.98;;
40781;SDS011;26493;51.938;7.626;2023-01-13T07:55:58;19.52;;;9.50;;
40781;SDS011;26493;51.938;7.626;2023-01-13T07:58:24;22.63;;;9.77;;
40781;SDS011;26493;51.938;7.626;2023-01-13T08:00:51;19.92;;;9.48;;
40781;SDS011;26493;51.938;7.626;2023-01-13T08:03:17;19.02;;;9.88;;
40781;SDS011;26493;51.938;7.626;2023-01-13T08:05:44;20.45;;;9.80;;
40781;SDS011;26493;51.938;7.626;2023-01-13T08:08:10;24.50;;;9.57;;
40781;SDS011;26493;51.938;7.626;2023-01-13T08:10:36;19.90;;;9.75;;
40781;SDS011;26493;51.938;7.626;2023-01-13T08:13:09;20.52;;;11.55;;
40781;SDS011;26493;51.938;7.626;2023-01-13T08:15:42;18.08;;;10.57;;
40781;SDS011;26493;51.938;7.626;2023-01-13T08:18:08;22.98;;;10.32;;
40781;SDS011;26493;51.938;7.626;2023-01-13T08:20:34;18.25;;;10.35;;
40781;SDS011;26493;51.938;7.626;2023-01-13T08:23:00;21.35;;;11.18;;
40781;SDS011;26493;51.938;7.626;2023-01-13T08:25:27;16.85;;;9.13;;
40781;SDS011;26493;51.938;7.626;2023-01-13T08:27:53;21.75;;;11.98;;
40781;SDS011;26493;51.938;7.626;2023-01-13T08:30:19;26.58;;;10.70;;
40781;SDS011;26493;51.938;7.626;2023-01-13T08:32:46;19.90;;;9.75;;
40781;SDS011;26493;51.938;7.626;2023-01-13T08:35:13;19.67;;;10.20;;
40781;SDS011;26493;51.938;7.626;2023-01-13T08:37:39;20.05;;;9.77;;
40781;SDS011;26493;51.938;7.626;2023-01-13T08:40:06;18.00;;;10.57;;
40781;SDS011;26493;51.938;7.626;2023-01-13T08:42:32;17.98;;;9.75;;
40781;SDS011;26493;51.938;7.626;2023-01-13T08:44:59;21.77;;;10.18;;
40781;SDS011;26493;51.938;7.626;2023-01-13T08:47:28;17.50;;;9.77;;
40781;SDS011;26493;51.938;7.626;2023-01-13T08:49:54;19.42;;;9.98;;
40781;SDS011;26493;51.938;7.626;2023-01-13T08:52:20;19.77;;;10.23;;
40781;SDS011;26493;51.938;7.626;2023-01-13T08:54:46;19.30;;;9.80;;
40781;SDS011;26493;51.938;7.626;2023-01-13T08:57:12;20.67;;;9.48;;
40781;SDS011;26493;51.938;7.626;2023-01-13T08:59:43;24.02;;;10.55;;
40781;SDS011;26493;51.938;7.626;2023-01-13T09:02:13;22.70;;;9.38;;
40781;SDS011;26493;51.938;7.626;2023-01-13T09:04:40;24.08;;;10.40;;
40781;SDS011;26493;51.938;7.626;2023-01-13T09:07:08;19.40;;;9.70;;
40781;SDS011;26493;51.938;7.626;2023-01-13T09:09:53;18.63;;;9.93;;
40781;SDS011;26493;51.938;7.626;2023-01-13T09:12:21;23.73;;;9.95;;
40781;SDS011;26493;51.938;7.626;2023-01-13T09:15:06;20.13;;;10.88;;
40781;SDS011;26493;51.938;7.626;2023-01-13T09:17:32;26.00;;;10.15;;
40781;SDS011;26493;51.938;7.626;2023-01-13T09:19:59;18.70;;;9.05;;
40781;SDS011;26493;51.938;7.626;2023-01-13T09:22:25;17.65;;;9.18;;
40781;SDS011;26493;51.938;7.626;2023-01-13T09:24:51;22.58;;;12.05;;
40781;SDS011;26493;51.938;7.626;2023-01-13T09:27:18;18.73;;;10.80;;
40781;SDS011;26493;51.938;7.626;2023-01-13T09:29:44;25.17;;;10.43;;
40781;SDS011;26493;51.938;7.626;2023-01-13T09:32:11;20.50;;;9.93;;
40781;SDS011;26493;51.938;7.626;2023-01-13T09:34:37;19.05;;;10.00;;
40781;SDS011;26493;51.938;7.626;2023-01-13T09:37:22;19.63;;;8.98;;
40781;SDS011;26493;51.938;7.626;2023-01-13T09:39:48;22.50;;;10.82;;
40781;SDS011;26493;51.938;7.626;2023-01-13T09:45:10;18.70;;;9.95;;
40781;SDS011;26493;51.938;7.626;2023-01-13T09:52:41;22.88;;;10.95;;
40781;SDS011;26493;51.938;7.626;2023-01-13T09:57:36;19.70;;;9.27;;
40781;SDS011;26493;51.938;7.626;2023-01-13T10:00:26;22.15;;;10.32;;
40781;SDS011;26493;51.938;7.626;2023-01-13T10:07:58;23.33;;;9.32;;
40781;SDS011;26493;51.938;7.626;2023-01-13T10:10:40;17.65;;;9.75;;
40781;SDS011;26493;51.938;7.626;2023-01-13T10:13:13;22.92;;;10.77;;
40781;SDS011;26493;51.938;7.626;2023-01-13T10:18:24;21.98;;;11.05;;
40781;SDS011;26493;51.938;7.626;2023-01-13T10:20:58;21.73;;;10.38;;
40781;SDS011;26493;51.938;7.626;2023-01-13T10:23:36;21.40;;;9.75;;
40781;SDS011;26493;51.938;7.626;2023-01-13T10:26:09;20.67;;;9.02;;
40781;SDS011;26493;51.938;7.626;2023-01-13T10:28:39;18.75;;;9.18;;
40781;SDS011;26493;51.938;7.626;2023-01-13T10:31:09;20.90;;;8.95;;
40781;SDS011;26493;51.938;7.626;2023-01-13T10:33:36;20.95;;;10.05;;
40781;SDS011;26493;51.938;7.626;2023-01-13T10:36:03;23.60;;;10.35;;
40781;SDS011;26493;51.938;7.626;2023-01-13T10:43:42;21.63;;;9.80;;
40781;SDS011;26493;51.938;7.626;2023-01-13T10:46:10;26.27;;;10.52;;
40781;SDS011;26493;51.938;7.626;2023-01-13T10:54:13;23.35;;;10.82;;
40781;SDS011;26493;51.938;7.626;2023-01-13T10:56:43;18.95;;;9.15;;
40781;SDS011;26493;51.938;7.626;2023-01-13T10:59:22;18.38;;;9.68;;
40781;SDS011;26493;51.938;7.626;2023-01-13T11:04:27;18.13;;;9.73;;
40781;SDS011;26493;51.938;7.626;2023-01-13T11:06:54;18.02;;;8.75;;
40781;SDS011;26493;51.938;7.626;2023-01-13T11:09:20;25.65;;;9.25;;
40781;SDS011;26493;51.938;7.626;2023-01-13T11:11:47;18.30;;;8.73;;
40781;SDS011;26493;51.938;7.626;2023-01-13T11:16:58;18.50;;;8.57;;
40781;SDS011;26493;51.938;7.626;2023-01-13T11:19:26;21.52;;;9.55;;
40781;SDS011;26493;51.938;7.626;2023-01-13T11:24:28;26.52;;;9.98;;
40781;SDS011;26493;51.938;7.626;2023-01-13T11:26:59;28.15;;;9.68;;
40781;SDS011;26493;51.938;7.626;2023-01-13T11:31:53;24.45;;;9.93;;
40781;SDS011;26493;51.938;7.626;2023-01-13T11:34:35;19.17;;;9.93;;
40781;SDS011;26493;51.938;7.626;2023-01-13T11:37:02;21.83;;;11.57;;
40781;SDS011;26493;51.938;7.626;2023-01-13T11:42:25;26.15;;;13.63;;
40781;SDS011;26493;51.938;7.626;2023-01-13T11:47:28;21.58;;;13.05;;
40781;SDS011;26493;51.938;7.626;2023-01-13T11:49:56;32.60;;;15.90;;
40781;SDS011;26493;51.938;7.626;2023-01-13T11:52:26;23.42;;;12.93;;
40781;SDS011;26493;51.938;7.626;2023-01-13T11:58:00;25.83;;;15.18;;
40781;SDS011;26493;51.938;7.626;2023-01-13T12:05:47;24.17;;;16.20;;
40781;SDS011;26493;51.938;7.626;2023-01-13T12:08:30;24.35;;;17.65;;
40781;SDS011;26493;51.938;7.626;2023-01-13T12:11:13;20.92;;;16.42;;
40781;SDS011;26493;51.938;7.626;2023-01-13T12:16:17;21.48;;;16.08;;
40781;SDS011;26493;51.938;7.626;2023-01-13T12:24:17;22.48;;;15.90;;
40781;SDS011;26493;51.938;7.626;2023-01-13T12:27:19;22.52;;;15.30;;
40781;SDS011;26493;51.938;7.626;2023-01-13T12:29:37;23.45;;;14.27;;
40781;SDS011;26493;51.938;7.626;2023-01-13T12:32:16;26.75;;;14.18;;
40781;SDS011;26493;51.938;7.626;2023-01-13T12:40:20;19.63;;;13.45;;
40781;SDS011;26493;51.938;7.626;2023-01-13T12:45:51;22.35;;;14.25;;
40781;SDS011;26493;51.938;7.626;2023-01-13T12:51:02;19.33;;;12.13;;
40781;SDS011;26493;51.938;7.626;2023-01-13T12:53:31;20.80;;;12.77;;
40781;SDS011;26493;51.938;7.626;2023-01-13T12:58:42;18.77;;;11.43;;
40781;SDS011;26493;51.938;7.626;2023-01-13T13:01:12;18.42;;;11.10;;
40781;SDS011;26493;51.938;7.626;2023-01-13T13:03:38;21.45;;;11.65;;
40781;SDS011;26493;51.938;7.626;2023-01-13T13:11:22;21.95;;;10.40;;
40781;SDS011;26493;51.938;7.626;2023-01-13T13:14:57;19.00;;;10.52;;
40781;SDS011;26493;51.938;7.626;2023-01-13T13:19:49;22.00;;;10.43;;
40781;SDS011;26493;51.938;7.626;2023-01-13T13:22:20;20.42;;;17.13;;
40781;SDS011;26493;51.938;7.626;2023-01-13T13:34:55;58.03;;;53.00;;
40781;SDS011;26493;51.938;7.626;2023-01-13T13:39:50;44.80;;;40.67;;
40781;SDS011;26493;51.938;7.626;2023-01-13T13:42:36;41.25;;;37.15;;
40781;SDS011;26493;51.938;7.626;2023-01-13T13:45:24;38.60;;;34.92;;
40781;SDS011;26493;51.938;7.626;2023-01-13T13:50:36;36.75;;;33.20;;
40781;SDS011;26493;51.938;7.626;2023-01-13T13:53:02;34.28;;;31.17;;
40781;SDS011;26493;51.938;7.626;2023-01-13T13:55:30;35.22;;;31.00;;
40781;SDS011;26493;51.938;7.626;2023-01-13T13:57:56;32.35;;;29.33;;
40781;SDS011;26493;51.938;7.626;2023-01-13T14:00:29;29.65;;;26.65;;
40781;SDS011;26493;51.938;7.626;2023-01-13T14:03:05;27.17;;;24.45;;
40781;SDS011;26493;51.938;7.626;2023-01-13T14:05:33;27.85;;;25.25;;
40781;SDS011;26493;51.938;7.626;2023-01-13T14:08:15;25.60;;;22.80;;
40781;SDS011;26493;51.938;7.626;2023-01-13T14:10:42;26.95;;;23.08;;
40781;SDS011;26493;51.938;7.626;2023-01-13T14:13:28;30.02;;;23.45;;
40781;SDS011;26493;51.938;7.626;2023-01-13T14:15:58;25.08;;;22.40;;
40781;SDS011;26493;51.938;7.626;2023-01-13T14:18:25;25.05;;;21.13;;
40781;SDS011;26493;51.938;7.626;2023-01-13T14:23:18;27.80;;;25.08;;
40781;SDS011;26493;51.938;7.626;2023-01-13T14:25:48;38.10;;;34.28;;
40781;SDS011;26493;51.938;7.626;2023-01-13T14:28:17;38.72;;;35.53;;
40781;SDS011;26493;51.938;7.626;2023-01-13T14:30:44;47.33;;;43.17;;
40781;SDS011;26493;51.938;7.626;2023-01-13T14:33:14;43.30;;;39.88;;
40781;SDS011;26493;51.938;7.626;2023-01-13T14:38:26;46.63;;;42.53;;
40781;SDS011;26493;51.938;7.626;2023-01-13T14:40:52;46.30;;;42.40;;
40781;SDS011;26493;51.938;7.626;2023-01-13T14:43:18;46.40;;;42.15;;
40781;SDS011;26493;51.938;7.626;2023-01-13T14:45:55;45.75;;;41.85;;
40781;SDS011;26493;51.938;7.626;2023-01-13T14:48:21;46.38;;;42.60;;
40781;SDS011;26493;51.938;7.626;2023-01-13T14:50:50;44.30;;;40.67;;
40781;SDS011;26493;51.938;7.626;2023-01-13T14:53:29;40.67;;;36.95;;
40781;SDS011;26493;51.938;7.626;2023-01-13T14:55:58;38.92;;;35.22;;
40781;SDS011;26493;51.938;7.626;2023-01-13T14:58:25;35.58;;;32.47;;
40781;SDS011;26493;51.938;7.626;2023-01-13T15:01:24;36.80;;;33.13;;
40781;SDS011;26493;51.938;7.626;2023-01-13T15:03:41;39.00;;;34.50;;
40781;SDS011;26493;51.938;7.626;2023-01-13T15:06:20;36.60;;;33.25;;
40781;SDS011;26493;51.938;7.626;2023-01-13T15:08:47;35.17;;;31.83;;
40781;SDS011;26493;51.938;7.626;2023-01-13T15:11:21;35.83;;;32.58;;
40781;SDS011;26493;51.938;7.626;2023-01-13T15:13:51;37.00;;;33.60;;
40781;SDS011;26493;51.938;7.626;2023-01-13T15:16:20;35.22;;;31.88;;
40781;SDS011;26493;51.938;7.626;2023-01-13T15:18:47;38.25;;;34.50;;
40781;SDS011;26493;51.938;7.626;2023-01-13T15:21:13;33.95;;;30.75;;
40781;SDS011;26493;51.938;7.626;2023-01-13T15:23:40;34.35;;;31.05;;
40781;SDS011;26493;51.938;7.626;2023-01-13T15:28:38;32.78;;;29.65;;
40781;SDS011;26493;51.938;7.626;2023-01-13T15:31:04;33.80;;;30.33;;
40781;SDS011;26493;51.938;7.626;2023-01-13T15:33:30;34.95;;;29.40;;
40781;SDS011;26493;51.938;7.626;2023-01-13T15:35:56;32.20;;;29.08;;
40781;SDS011;26493;51.938;7.626;2023-01-13T15:38:23;31.77;;;28.80;;
40781;SDS011;26493;51.938;7.626;2023-01-13T15:40:50;29.63;;;26.65;;
40781;SDS011;26493;51.938;7.626;2023-01-13T15:43:17;27.63;;;24.92;;
40781;SDS011;26493;51.938;7.626;2023-01-13T15:46:03;28.23;;;25.10;;
40781;SDS011;26493;51.938;7.626;2023-01-13T15:48:50;29.42;;;23.33;;
40781;SDS011;26493;51.938;7.626;2023-01-13T15:51:16;24.52;;;21.98;;
40781;SDS011;26493;51.938;7.626;2023-01-13T15:53:43;26.88;;;20.50;;
40781;SDS011;26493;51.938;7.626;2023-01-13T15:56:15;25.27;;;21.20;;
40781;SDS011;26493;51.938;7.626;2023-01-13T15:58:43;30.63;;;21.27;;
40781;SDS011;26493;51.938;7.626;2023-01-13T16:01:10;28.13;;;18.58;;
40781;SDS011;26493;51.938;7.626;2023-01-13T16:03:37;23.48;;;18.67;;
40781;SDS011;26493;51.938;7.626;2023-01-13T16:06:07;23.33;;;17.55;;
40781;SDS011;26493;51.938;7.626;2023-01-13T16:08:35;23.95;;;18.55;;
40781;SDS011;26493;51.938;7.626;2023-01-13T16:11:01;24.95;;;15.93;;
40781;SDS011;26493;51.938;7.626;2023-01-13T16:13:27;26.83;;;15.25;;
40781;SDS011;26493;51.938;7.626;2023-01-13T16:15:53;27.10;;;15.35;;
40781;SDS011;26493;51.938;7.626;2023-01-13T16:18:20;21.40;;;14.07;;
40781;SDS011;26493;51.938;7.626;2023-01-13T16:20:50;23.00;;;13.70;;
40781;SDS011;26493;51.938;7.626;2023-01-13T16:23:17;22.05;;;14.20;;
40781;SDS011;26493;51.938;7.626;2023-01-13T16:25:43;25.08;;;16.73;;
40781;SDS011;26493;51.938;7.626;2023-01-13T16:28:21;36.00;;;32.53;;
40781;SDS011;26493;51.938;7.626;2023-01-13T16:30:48;36.60;;;33.63;;
40781;SDS011;26493;51.938;7.626;2023-01-13T16:33:14;43.75;;;40.00;;
40781;SDS011;26493;51.938;7.626;2023-01-13T16:35:40;47.45;;;43.42;;
40781;SDS011;26493;51.938;7.626;2023-01-13T16:38:08;47.90;;;43.67;;
40781;SDS011;26493;51.938;7.626;2023-01-13T16:40:35;49.65;;;45.08;;
40781;SDS011;26493;51.938;7.626;2023-01-13T16:43:02;49.50;;;45.08;;
40781;SDS011;26493;51.938;7.626;2023-01-13T16:45:31;46.03;;;41.67;;
40781;SDS011;26493;51.938;7.626;2023-01-13T16:47:58;41.35;;;37.60;;
40781;SDS011;26493;51.938;7.626;2023-01-13T16:50:42;41.25;;;37.33;;
40781;SDS011;26493;51.938;7.626;2023-01-13T16:53:08;39.90;;;35.55;;
40781;SDS011;26493;51.938;7.626;2023-01-13T16:55:35;37.78;;;33.92;;
40781;SDS011;26493;51.938;7.626;2023-01-13T16:58:01;34.63;;;31.33;;
40781;SDS011;26493;51.938;7.626;2023-01-13T17:00:28;35.65;;;32.10;;
40781;SDS011;26493;51.938;7.626;2023-01-13T17:02:54;31.52;;;28.45;;
40781;SDS011;26493;51.938;7.626;2023-01-13T17:07:48;30.48;;;25.67;;
40781;SDS011;26493;51.938;7.626;2023-01-13T17:10:16;28.70;;;26.05;;
40781;SDS011;26493;51.938;7.626;2023-01-13T17:12:42;28.85;;;25.63;;
40781;SDS011;26493;51.938;7.626;2023-01-13T17:15:12;29.48;;;25.23;;
40781;SDS011;26493;51.938;7.626;2023-01-13T17:17:38;32.03;;;23.55;;
40781;SDS011;26493;51.938;7.626;2023-01-13T17:20:06;26.70;;;23.55;;
40781;SDS011;26493;51.938;7.626;2023-01-13T17:22:33;26.80;;;23.00;;
40781;SDS011;26493;51.938;7.626;2023-01-13T17:24:59;25.50;;;22.13;;